Time;durP1;ratioP1;P1;durP2;ratioP2;P2;SDS_P1;SDS_P2;PMS_P1;PMS_P2;Temp;Humidity;BMP_temperature;BMP_pressure;BME280_temperature;BME280_humidity;BME280_pressure;Samples;Min_cycle;Max_cycle;Signal;HPM_P1;HPM_P2
2022/01/24 00:00:17;;;;;;;34.97;16.97;;;;;;;;;;5047390;28;20644;-68
2022/01/24 00:02:44;;;;;;;31.43;15.73;;;;;;;;;;5043284;28;20186;-69
2022/01/24 00:05:11;;;;;;;38.67;17.00;;;;;;;;;;5045361;28;20190;-67
2022/01/24 00:07:37;;;;;;;29.87;15.97;;;;;;;;;;5046232;28;20225;-67
2022/01/24 00:10:11;;;;;;;28.20;15.40;;;;;;;;;;5044769;28;20603;-67
2022/01/24 00:15:15;;;;;;;29.53;14.97;;;;;;;;;;5046824;28;21039;-67
2022/01/24 00:18:02;;;;;;;31.43;16.67;;;;;;;;;;5044912;28;20181;-67
2022/01/24 00:28:22;;;;;;;39.80;20.50;;;;;;;;;;5044953;28;20204;-68
2022/01/24 00:30:49;;;;;;;41.60;20.83;;;;;;;;;;5044175;28;20213;-68
2022/01/24 00:33:15;;;;;;;42.50;21.77;;;;;;;;;;5047065;28;20189;-67
2022/01/24 00:35:41;;;;;;;43.90;21.93;;;;;;;;;;5043132;28;20620;-67
2022/01/24 00:38:07;;;;;;;42.90;21.23;;;;;;;;;;5044850;28;20173;-67
2022/01/24 00:40:36;;;;;;;45.70;22.97;;;;;;;;;;5047290;28;20276;-68
2022/01/24 00:43:05;;;;;;;43.20;21.93;;;;;;;;;;5039395;28;20276;-68
2022/01/24 00:48:33;;;;;;;43.80;21.33;;;;;;;;;;5042489;28;20335;-68
2022/01/24 00:56:10;;;;;;;39.57;19.90;;;;;;;;;;5041021;28;20206;-68
2022/01/24 00:58:35;;;;;;;40.10;20.83;;;;;;;;;;5042033;28;20184;-68
2022/01/24 01:01:01;;;;;;;40.93;21.40;;;;;;;;;;5043196;28;20197;-68
2022/01/24 01:03:26;;;;;;;40.70;21.43;;;;;;;;;;5040188;28;20235;-68
2022/01/24 01:06:04;;;;;;;35.97;18.17;;;;;;;;;;5045033;28;20193;-68
2022/01/24 01:19:34;;;;;;;42.40;21.07;;;;;;;;;;5041759;28;20278;-68
2022/01/24 01:21:59;;;;;;;47.60;23.43;;;;;;;;;;5042956;28;20193;-67
2022/01/24 01:24:27;;;;;;;46.13;22.67;;;;;;;;;;5041890;28;21846;-68
2022/01/24 01:27:07;;;;;;;50.30;24.87;;;;;;;;;;5040978;28;20292;-67
2022/01/24 01:29:46;;;;;;;46.97;22.23;;;;;;;;;;5030450;28;20243;-69
2022/01/24 01:55:38;;;;;;;48.23;22.87;;;;;;;;;;5040955;28;20672;-68
2022/01/24 01:58:12;;;;;;;46.83;23.03;;;;;;;;;;5044311;28;20173;-68
2022/01/24 02:00:41;;;;;;;52.30;24.13;;;;;;;;;;5039788;28;20197;-68
2022/01/24 02:03:07;;;;;;;47.27;23.37;;;;;;;;;;5043817;28;20200;-67
2022/01/24 02:05:33;;;;;;;46.37;23.57;;;;;;;;;;5044661;28;20185;-67
2022/01/24 02:07:59;;;;;;;47.67;22.83;;;;;;;;;;5043824;28;20197;-68
2022/01/24 02:10:25;;;;;;;46.23;23.67;;;;;;;;;;5044724;28;20229;-67
2022/01/24 02:12:53;;;;;;;49.00;24.03;;;;;;;;;;5043175;28;20680;-68
2022/01/24 02:15:36;;;;;;;46.73;22.77;;;;;;;;;;5040919;28;20868;-68
2022/01/24 02:25:53;;;;;;;48.73;23.47;;;;;;;;;;5043508;28;20288;-68
2022/01/24 02:28:21;;;;;;;46.97;23.50;;;;;;;;;;5042600;28;20216;-68
2022/01/24 02:33:23;;;;;;;46.10;26.47;;;;;;;;;;5048722;28;20212;-68
2022/01/24 02:35:48;;;;;;;44.60;24.77;;;;;;;;;;5043697;28;20190;-69
2022/01/24 02:38:34;;;;;;;45.27;24.27;;;;;;;;;;5047702;28;20185;-68
2022/01/24 02:49:14;;;;;;;38.10;22.53;;;;;;;;;;5042856;28;20224;-68
2022/01/24 02:51:48;;;;;;;40.20;22.47;;;;;;;;;;5045668;28;20250;-68
2022/01/24 02:54:27;;;;;;;37.67;22.27;;;;;;;;;;5039839;28;20210;-68
2022/01/24 02:56:53;;;;;;;40.13;23.87;;;;;;;;;;5047027;28;20178;-68
2022/01/24 02:59:19;;;;;;;40.03;21.67;;;;;;;;;;5047230;28;20199;-68
2022/01/24 03:01:45;;;;;;;40.77;22.73;;;;;;;;;;5043950;28;20189;-68
2022/01/24 03:04:10;;;;;;;38.87;22.90;;;;;;;;;;5047591;28;20290;-68
2022/01/24 03:06:36;;;;;;;40.20;23.40;;;;;;;;;;5046004;28;20213;-68
2022/01/24 03:09:06;;;;;;;38.50;22.97;;;;;;;;;;5040768;28;20229;-68
2022/01/24 03:11:55;;;;;;;41.03;23.77;;;;;;;;;;5047345;28;20220;-68
2022/01/24 03:14:18;;;;;;;40.93;23.63;;;;;;;;;;5037606;28;20193;-68
2022/01/24 03:16:43;;;;;;;39.73;24.00;;;;;;;;;;5044147;28;20519;-68
2022/01/24 03:19:09;;;;;;;43.63;24.33;;;;;;;;;;5042366;28;20197;-68
2022/01/24 03:21:34;;;;;;;42.50;24.80;;;;;;;;;;5046958;28;20236;-67
2022/01/24 03:23:59;;;;;;;42.80;25.20;;;;;;;;;;5040752;28;20197;-68
2022/01/24 03:26:25;;;;;;;48.83;26.67;;;;;;;;;;5041144;28;20264;-68
2022/01/24 03:28:51;;;;;;;48.50;24.83;;;;;;;;;;5036888;28;20285;-69
2022/01/24 03:31:16;;;;;;;49.50;25.47;;;;;;;;;;5043446;28;21444;-68
2022/01/24 03:33:42;;;;;;;35.53;21.77;;;;;;;;;;5045608;28;20635;-68
2022/01/24 03:36:07;;;;;;;47.20;26.43;;;;;;;;;;5044212;28;20598;-68
2022/01/24 03:38:32;;;;;;;42.63;22.97;;;;;;;;;;5033568;28;20186;-68
2022/01/24 03:40:58;;;;;;;47.13;26.33;;;;;;;;;;5044037;28;20209;-67
2022/01/24 03:43:24;;;;;;;46.10;25.60;;;;;;;;;;5044177;28;20276;-67
2022/01/24 03:46:10;;;;;;;47.00;26.27;;;;;;;;;;5046008;28;20194;-68
2022/01/24 03:48:48;;;;;;;44.47;24.80;;;;;;;;;;5045419;28;20328;-67
2022/01/24 03:51:14;;;;;;;48.67;27.23;;;;;;;;;;5044246;28;20174;-68
2022/01/24 03:53:41;;;;;;;46.33;26.23;;;;;;;;;;5044709;28;21649;-68
2022/01/24 03:56:07;;;;;;;46.37;26.00;;;;;;;;;;5044254;28;20181;-68
2022/01/24 03:58:33;;;;;;;43.53;25.83;;;;;;;;;;5045499;28;20369;-68
2022/01/24 04:00:59;;;;;;;41.60;24.83;;;;;;;;;;5043566;28;20206;-68
2022/01/24 04:03:24;;;;;;;39.70;22.37;;;;;;;;;;5038638;28;20181;-68
2022/01/24 04:05:50;;;;;;;43.43;24.90;;;;;;;;;;5043948;28;20215;-68
2022/01/24 04:08:16;;;;;;;42.33;24.60;;;;;;;;;;5038872;28;20232;-68
2022/01/24 04:10:44;;;;;;;44.10;24.63;;;;;;;;;;5045300;28;20228;-67
2022/01/24 04:14:09;;;;;;;42.37;25.27;;;;;;;;;;5045613;28;20556;-68
2022/01/24 04:21:33;;;;;;;39.20;24.97;;;;;;;;;;5032960;28;20594;-69
2022/01/24 04:24:06;;;;;;;48.33;26.17;;;;;;;;;;5040102;28;20212;-68
2022/01/24 04:26:33;;;;;;;43.07;25.77;;;;;;;;;;5037643;28;20178;-68
2022/01/24 04:28:59;;;;;;;42.70;25.87;;;;;;;;;;5041772;28;20603;-68
2022/01/24 04:31:26;;;;;;;45.20;25.40;;;;;;;;;;5047239;28;20205;-67
2022/01/24 04:33:51;;;;;;;47.80;25.53;;;;;;;;;;5043141;28;20707;-67
2022/01/24 04:36:18;;;;;;;53.67;26.67;;;;;;;;;;5044738;28;20189;-68
2022/01/24 04:38:44;;;;;;;43.53;24.73;;;;;;;;;;5045221;28;20272;-69
2022/01/24 04:41:20;;;;;;;45.60;25.27;;;;;;;;;;5044467;28;20165;-69
2022/01/24 04:43:53;;;;;;;46.70;25.90;;;;;;;;;;5041378;28;20190;-69
2022/01/24 04:55:07;;;;;;;44.27;24.97;;;;;;;;;;5006733;28;21105;-68
2022/01/24 04:57:32;;;;;;;45.43;23.90;;;;;;;;;;5015995;28;20178;-68
2022/01/24 04:59:59;;;;;;;44.07;23.43;;;;;;;;;;5026792;28;20201;-68
2022/01/24 05:02:26;;;;;;;44.43;24.77;;;;;;;;;;5046783;28;20176;-67
2022/01/24 05:04:53;;;;;;;40.53;24.30;;;;;;;;;;5045616;28;20655;-69
2022/01/24 05:07:18;;;;;;;43.30;23.47;;;;;;;;;;5043961;28;20201;-68
2022/01/24 05:10:11;;;;;;;40.37;23.13;;;;;;;;;;5040405;28;20225;-68
2022/01/24 05:21:22;;;;;;;45.47;26.03;;;;;;;;;;5045405;28;20190;-68
2022/01/24 05:23:44;;;;;;;43.30;23.80;;;;;;;;;;5036160;28;20255;-68
2022/01/24 05:26:10;;;;;;;41.63;24.80;;;;;;;;;;5045735;28;20495;-67
2022/01/24 05:28:36;;;;;;;41.47;24.27;;;;;;;;;;5042951;28;20308;-68
2022/01/24 05:31:02;;;;;;;42.80;23.73;;;;;;;;;;5041040;28;20202;-68
2022/01/24 05:33:28;;;;;;;42.27;24.00;;;;;;;;;;5042053;28;20284;-67
2022/01/24 05:35:54;;;;;;;41.80;23.70;;;;;;;;;;5034486;28;20256;-69
2022/01/24 05:38:21;;;;;;;38.00;22.50;;;;;;;;;;5041714;28;20257;-68
2022/01/24 05:40:47;;;;;;;36.40;21.67;;;;;;;;;;5045757;28;20173;-68
2022/01/24 05:43:12;;;;;;;38.57;21.80;;;;;;;;;;5042504;28;20184;-68
2022/01/24 05:45:38;;;;;;;36.60;21.37;;;;;;;;;;5037955;28;20181;-68
2022/01/24 05:48:04;;;;;;;38.90;22.43;;;;;;;;;;5043587;28;20205;-68
2022/01/24 05:50:29;;;;;;;38.77;21.90;;;;;;;;;;5041452;28;20188;-68
2022/01/24 05:52:55;;;;;;;36.10;20.50;;;;;;;;;;5041269;28;20188;-68
2022/01/24 05:55:20;;;;;;;37.53;21.67;;;;;;;;;;5041048;28;20181;-68
2022/01/24 05:57:46;;;;;;;33.67;20.57;;;;;;;;;;5042318;28;20184;-68
2022/01/24 06:00:12;;;;;;;34.70;20.50;;;;;;;;;;5040378;28;20496;-68
2022/01/24 06:02:38;;;;;;;35.43;20.53;;;;;;;;;;5042276;28;20200;-68
2022/01/24 06:05:04;;;;;;;34.37;19.67;;;;;;;;;;5036206;28;20193;-68
2022/01/24 06:07:29;;;;;;;37.13;21.07;;;;;;;;;;5050242;28;20204;-67
2022/01/24 06:09:55;;;;;;;33.03;20.67;;;;;;;;;;5040851;28;20684;-68
2022/01/24 06:12:20;;;;;;;33.63;20.73;;;;;;;;;;5043088;28;20200;-68
2022/01/24 06:14:46;;;;;;;28.33;18.13;;;;;;;;;;5044810;28;20708;-68
2022/01/24 06:17:11;;;;;;;33.60;20.23;;;;;;;;;;5039355;28;20184;-67
2022/01/24 06:19:37;;;;;;;38.57;21.17;;;;;;;;;;5043727;28;20193;-68
2022/01/24 06:22:03;;;;;;;37.87;21.13;;;;;;;;;;5043333;28;20188;-67
2022/01/24 06:24:28;;;;;;;35.47;21.07;;;;;;;;;;5043498;28;20277;-69
2022/01/24 06:26:54;;;;;;;32.93;18.27;;;;;;;;;;5044588;28;20288;-69
2022/01/24 06:29:19;;;;;;;33.03;20.57;;;;;;;;;;5044778;28;20200;-68
2022/01/24 06:31:44;;;;;;;32.17;20.43;;;;;;;;;;5049050;28;20208;-68
2022/01/24 06:34:10;;;;;;;34.10;20.10;;;;;;;;;;5044641;28;20185;-68
2022/01/24 06:36:36;;;;;;;33.97;20.53;;;;;;;;;;5048912;28;20232;-69
2022/01/24 06:39:04;;;;;;;32.70;20.23;;;;;;;;;;5046513;28;20226;-67
2022/01/24 06:41:33;;;;;;;31.03;18.63;;;;;;;;;;5046743;28;20284;-68
2022/01/24 06:43:58;;;;;;;30.57;19.57;;;;;;;;;;5045496;28;20636;-67
2022/01/24 06:46:24;;;;;;;32.80;19.80;;;;;;;;;;5039196;28;20315;-68
2022/01/24 06:48:49;;;;;;;31.90;19.20;;;;;;;;;;5047785;28;20186;-67
2022/01/24 06:51:17;;;;;;;34.67;20.17;;;;;;;;;;5041511;28;20629;-67
2022/01/24 06:53:42;;;;;;;26.93;16.17;;;;;;;;;;5039565;28;20182;-67
2022/01/24 06:56:08;;;;;;;26.03;16.30;;;;;;;;;;5047315;28;20184;-68
2022/01/24 06:58:35;;;;;;;32.07;20.07;;;;;;;;;;5041379;28;20524;-68
2022/01/24 07:01:02;;;;;;;32.77;19.57;;;;;;;;;;5044764;28;20243;-68
2022/01/24 07:03:27;;;;;;;31.77;19.57;;;;;;;;;;5044918;28;20264;-67
2022/01/24 07:05:53;;;;;;;27.20;18.13;;;;;;;;;;5045970;28;20728;-67
2022/01/24 07:08:18;;;;;;;28.90;18.90;;;;;;;;;;5046576;28;20691;-67
2022/01/24 07:10:44;;;;;;;26.27;17.07;;;;;;;;;;5044386;28;20712;-67
2022/01/24 07:13:09;;;;;;;27.90;18.20;;;;;;;;;;5048083;28;20555;-67
2022/01/24 07:15:44;;;;;;;28.67;18.87;;;;;;;;;;5039889;28;20266;-68
2022/01/24 07:21:05;;;;;;;30.70;18.97;;;;;;;;;;5033222;28;20196;-68
2022/01/24 07:23:30;;;;;;;27.93;18.77;;;;;;;;;;5042262;28;20223;-68
2022/01/24 07:25:56;;;;;;;27.73;18.33;;;;;;;;;;5043023;28;20685;-67
2022/01/24 07:28:21;;;;;;;28.90;19.90;;;;;;;;;;5042997;28;20206;-68
2022/01/24 07:30:47;;;;;;;29.57;18.80;;;;;;;;;;5042096;28;20273;-67
2022/01/24 07:33:16;;;;;;;31.90;20.00;;;;;;;;;;5045482;28;20212;-68
2022/01/24 07:35:43;;;;;;;30.67;20.20;;;;;;;;;;5044450;28;20498;-68
2022/01/24 07:38:09;;;;;;;32.80;20.83;;;;;;;;;;5042826;28;20173;-68
2022/01/24 07:40:38;;;;;;;31.53;19.53;;;;;;;;;;5044631;28;20248;-68
2022/01/24 07:43:13;;;;;;;31.67;20.00;;;;;;;;;;5043737;28;20208;-68
2022/01/24 07:45:41;;;;;;;29.13;19.70;;;;;;;;;;5042420;28;20239;-68
2022/01/24 07:48:07;;;;;;;32.90;20.63;;;;;;;;;;5045739;28;20285;-68
2022/01/24 07:50:36;;;;;;;33.57;20.10;;;;;;;;;;5043079;28;20185;-68
2022/01/24 07:53:02;;;;;;;31.30;20.00;;;;;;;;;;5043816;28;20267;-67
2022/01/24 07:55:28;;;;;;;32.63;20.53;;;;;;;;;;5043193;28;20661;-67
2022/01/24 07:57:53;;;;;;;31.23;20.13;;;;;;;;;;5043400;28;20219;-68
2022/01/24 08:00:19;;;;;;;34.93;21.97;;;;;;;;;;5047346;28;20190;-68
2022/01/24 08:02:45;;;;;;;31.57;21.10;;;;;;;;;;5045561;28;20663;-68
2022/01/24 08:05:11;;;;;;;36.37;21.23;;;;;;;;;;5043527;28;20177;-67
2022/01/24 08:07:37;;;;;;;32.97;20.93;;;;;;;;;;5044836;28;20641;-68
2022/01/24 08:10:05;;;;;;;33.13;21.20;;;;;;;;;;5044178;28;20693;-68
2022/01/24 08:12:31;;;;;;;33.83;20.77;;;;;;;;;;5046426;28;20254;-68
2022/01/24 08:14:59;;;;;;;32.80;20.03;;;;;;;;;;5044578;28;20247;-68
2022/01/24 08:17:25;;;;;;;30.73;21.77;;;;;;;;;;5041637;28;20659;-68
2022/01/24 08:19:50;;;;;;;33.20;20.20;;;;;;;;;;5044532;28;20230;-68
2022/01/24 08:22:16;;;;;;;24.50;17.30;;;;;;;;;;5044281;28;20633;-67
2022/01/24 08:24:41;;;;;;;24.33;16.67;;;;;;;;;;5042655;28;20597;-68
2022/01/24 08:27:07;;;;;;;21.53;15.00;;;;;;;;;;5046229;28;20577;-68
2022/01/24 08:29:32;;;;;;;22.60;15.50;;;;;;;;;;5043695;28;20181;-68
2022/01/24 08:31:57;;;;;;;25.97;16.40;;;;;;;;;;5040860;28;20213;-68
2022/01/24 08:34:23;;;;;;;19.10;13.20;;;;;;;;;;5047498;28;20628;-68
2022/01/24 08:36:48;;;;;;;17.93;12.57;;;;;;;;;;5043814;28;20549;-67
2022/01/24 08:39:14;;;;;;;19.20;13.90;;;;;;;;;;5041543;28;20284;-68
2022/01/24 08:41:47;;;;;;;21.97;14.80;;;;;;;;;;5042401;28;20224;-68
2022/01/24 08:46:48;;;;;;;23.50;17.27;;;;;;;;;;5046451;28;20251;-68
2022/01/24 08:49:17;;;;;;;25.83;17.77;;;;;;;;;;5045133;28;20181;-67
2022/01/24 08:51:42;;;;;;;28.63;19.80;;;;;;;;;;5043700;28;20727;-67
2022/01/24 08:54:09;;;;;;;27.17;18.33;;;;;;;;;;5044473;28;20269;-68
2022/01/24 08:56:35;;;;;;;28.40;18.80;;;;;;;;;;5043193;28;20184;-68
2022/01/24 08:59:02;;;;;;;26.40;17.97;;;;;;;;;;5045243;28;20276;-67
2022/01/24 09:01:27;;;;;;;27.03;18.47;;;;;;;;;;5043270;28;20185;-68
2022/01/24 09:03:52;;;;;;;27.43;18.47;;;;;;;;;;5044066;28;20264;-68
2022/01/24 09:06:20;;;;;;;29.53;19.90;;;;;;;;;;5044152;28;20184;-67
2022/01/24 09:08:46;;;;;;;29.57;19.67;;;;;;;;;;5039714;28;20231;-68
2022/01/24 09:11:11;;;;;;;28.77;19.13;;;;;;;;;;5043383;28;20229;-68
2022/01/24 09:13:37;;;;;;;30.53;19.47;;;;;;;;;;5044278;28;20204;-67
2022/01/24 09:16:03;;;;;;;28.53;18.23;;;;;;;;;;5043084;28;20176;-67
2022/01/24 09:18:29;;;;;;;28.70;19.37;;;;;;;;;;5042921;28;20669;-67
2022/01/24 09:20:55;;;;;;;29.17;19.43;;;;;;;;;;5042819;28;20173;-67
2022/01/24 09:23:22;;;;;;;25.80;17.67;;;;;;;;;;5040222;28;20202;-68
2022/01/24 09:25:48;;;;;;;27.77;18.73;;;;;;;;;;5044505;28;20193;-68
2022/01/24 09:28:14;;;;;;;29.53;19.47;;;;;;;;;;5042293;28;20364;-68
2022/01/24 09:30:39;;;;;;;27.77;18.23;;;;;;;;;;5041831;28;20291;-68
2022/01/24 09:33:05;;;;;;;28.47;18.77;;;;;;;;;;5043880;28;20363;-68
2022/01/24 09:35:31;;;;;;;31.03;20.47;;;;;;;;;;5043946;28;20604;-68
2022/01/24 09:37:56;;;;;;;28.73;20.40;;;;;;;;;;5040230;28;20439;-68
2022/01/24 09:40:23;;;;;;;30.70;20.83;;;;;;;;;;5046123;28;20189;-67
2022/01/24 09:42:49;;;;;;;30.03;20.83;;;;;;;;;;5042975;28;20243;-68
2022/01/24 09:45:17;;;;;;;30.20;19.63;;;;;;;;;;5040877;28;20182;-68
2022/01/24 09:47:44;;;;;;;31.80;18.33;;;;;;;;;;5044531;28;20214;-67
2022/01/24 09:50:12;;;;;;;28.33;17.90;;;;;;;;;;5041239;28;20676;-68
2022/01/24 09:52:42;;;;;;;27.97;17.73;;;;;;;;;;5045014;28;20472;-68
2022/01/24 09:55:08;;;;;;;25.07;16.90;;;;;;;;;;5043356;28;20463;-68
2022/01/24 09:57:33;;;;;;;28.03;18.27;;;;;;;;;;5042667;28;20268;-68
2022/01/24 09:59:59;;;;;;;26.30;17.10;;;;;;;;;;5043170;28;20263;-68
2022/01/24 10:02:26;;;;;;;24.87;17.27;;;;;;;;;;5041825;28;20220;-67
2022/01/24 10:04:52;;;;;;;21.43;15.27;;;;;;;;;;5043561;28;20261;-68
2022/01/24 10:07:17;;;;;;;24.43;16.47;;;;;;;;;;5041028;28;20669;-68
2022/01/24 10:09:49;;;;;;;23.20;16.03;;;;;;;;;;5041563;28;20247;-68
2022/01/24 10:16:24;;;;;;;26.83;16.80;;;;;;;;;;5040618;28;20190;-68
2022/01/24 10:18:08;;;;;;;22.27;15.50;;;;;;;;;;5042958;28;20243;-67
2022/01/24 10:20:38;;;;;;;26.00;15.53;;;;;;;;;;5044478;28;20185;-68
2022/01/24 10:23:15;;;;;;;21.27;15.30;;;;;;;;;;5043709;28;20501;-68
2022/01/24 10:26:04;;;;;;;22.03;15.07;;;;;;;;;;5041223;28;20189;-67
2022/01/24 10:28:31;;;;;;;21.47;15.23;;;;;;;;;;5044687;28;20193;-67
2022/01/24 10:31:28;;;;;;;26.43;15.90;;;;;;;;;;5045019;28;20244;-67
2022/01/24 10:36:50;;;;;;;17.50;13.13;;;;;;;;;;5038349;28;20701;-68
2022/01/24 10:39:33;;;;;;;21.37;15.40;;;;;;;;;;5042508;28;20189;-68
2022/01/24 10:42:52;;;;;;;22.93;15.70;;;;;;;;;;5043946;28;20196;-68
2022/01/24 10:45:22;;;;;;;23.40;16.13;;;;;;;;;;5025805;28;20640;-68
2022/01/24 10:47:50;;;;;;;21.23;14.43;;;;;;;;;;5043393;28;20695;-67
2022/01/24 10:50:21;;;;;;;19.43;14.63;;;;;;;;;;5042040;28;20181;-68
2022/01/24 10:52:47;;;;;;;18.30;13.00;;;;;;;;;;5039814;28;20280;-68
2022/01/24 10:55:16;;;;;;;18.90;13.33;;;;;;;;;;5043670;28;20260;-68
2022/01/24 10:57:44;;;;;;;20.53;13.87;;;;;;;;;;5045762;28;20290;-68
2022/01/24 11:00:11;;;;;;;21.33;13.73;;;;;;;;;;5042487;28;20185;-68
2022/01/24 11:02:40;;;;;;;21.17;14.10;;;;;;;;;;5041126;28;20259;-68
2022/01/24 11:05:27;;;;;;;20.03;13.73;;;;;;;;;;5044878;28;20231;-68
2022/01/24 11:07:56;;;;;;;24.00;14.33;;;;;;;;;;5043266;28;20216;-67
2022/01/24 11:10:23;;;;;;;22.10;14.07;;;;;;;;;;5047751;28;20229;-67
2022/01/24 11:12:49;;;;;;;20.80;14.40;;;;;;;;;;5044353;28;20213;-68
2022/01/24 11:15:14;;;;;;;19.13;13.93;;;;;;;;;;5046528;28;20264;-68
2022/01/24 11:17:41;;;;;;;17.97;13.33;;;;;;;;;;5044478;28;20296;-68
2022/01/24 11:20:11;;;;;;;22.50;14.53;;;;;;;;;;5041966;28;20181;-68
2022/01/24 11:22:42;;;;;;;19.93;14.20;;;;;;;;;;5042927;28;20197;-68
2022/01/24 11:25:10;;;;;;;19.87;14.13;;;;;;;;;;5038868;28;20676;-68
2022/01/24 11:27:37;;;;;;;22.50;14.33;;;;;;;;;;5041860;28;20253;-67
2022/01/24 11:30:18;;;;;;;20.03;14.10;;;;;;;;;;5044878;28;20189;-68
2022/01/24 11:32:48;;;;;;;18.77;13.47;;;;;;;;;;5042265;28;20500;-68
2022/01/24 11:35:32;;;;;;;20.13;13.97;;;;;;;;;;5042043;28;20192;-68
2022/01/24 11:37:58;;;;;;;23.37;15.13;;;;;;;;;;5046295;28;20248;-68
2022/01/24 11:40:25;;;;;;;19.13;14.43;;;;;;;;;;5042775;28;20196;-68
2022/01/24 11:42:51;;;;;;;21.87;15.17;;;;;;;;;;5047232;28;20238;-68
2022/01/24 11:45:31;;;;;;;21.67;15.30;;;;;;;;;;5043729;28;20671;-68
2022/01/24 11:48:14;;;;;;;19.87;14.40;;;;;;;;;;5043853;28;20688;-68
2022/01/24 11:50:39;;;;;;;20.63;14.70;;;;;;;;;;5046496;28;20198;-68
2022/01/24 11:53:28;;;;;;;21.53;15.50;;;;;;;;;;5043013;28;20187;-68
2022/01/24 11:55:54;;;;;;;21.77;15.23;;;;;;;;;;5037925;28;20331;-68
2022/01/24 11:58:29;;;;;;;22.00;14.97;;;;;;;;;;5041501;28;20689;-68
2022/01/24 12:00:57;;;;;;;23.50;15.97;;;;;;;;;;5040984;28;20185;-68
2022/01/24 12:03:27;;;;;;;23.60;15.83;;;;;;;;;;5037945;28;20182;-68
2022/01/24 12:05:57;;;;;;;22.57;15.23;;;;;;;;;;5033619;28;20186;-69
2022/01/24 12:08:38;;;;;;;30.20;17.60;;;;;;;;;;5040137;28;20206;-68
2022/01/24 12:11:16;;;;;;;26.60;17.73;;;;;;;;;;5053272;28;20248;-67
2022/01/24 12:13:44;;;;;;;26.70;19.23;;;;;;;;;;5043610;28;20268;-68
2022/01/24 12:16:11;;;;;;;27.83;19.30;;;;;;;;;;5043457;28;20600;-66
2022/01/24 12:18:37;;;;;;;27.00;18.00;;;;;;;;;;5038803;28;20196;-68
2022/01/24 12:21:04;;;;;;;23.90;17.20;;;;;;;;;;5036316;28;20231;-67
2022/01/24 12:23:47;;;;;;;25.27;17.80;;;;;;;;;;5043902;28;20189;-68
2022/01/24 12:26:12;;;;;;;27.33;17.67;;;;;;;;;;5042394;28;20228;-68
2022/01/24 12:28:44;;;;;;;26.63;17.70;;;;;;;;;;5047089;28;20224;-69
2022/01/24 12:31:24;;;;;;;28.53;17.80;;;;;;;;;;5042221;28;20213;-68
2022/01/24 12:33:50;;;;;;;24.60;17.37;;;;;;;;;;5040211;28;20541;-68
2022/01/24 12:36:16;;;;;;;26.80;18.80;;;;;;;;;;5044840;28;20196;-68
2022/01/24 12:38:51;;;;;;;29.33;19.90;;;;;;;;;;5043141;28;20173;-68
2022/01/24 12:41:22;;;;;;;28.97;19.77;;;;;;;;;;5046912;28;20188;-68
2022/01/24 12:44:12;;;;;;;26.90;19.67;;;;;;;;;;5043032;28;20177;-68
2022/01/24 12:46:38;;;;;;;26.27;18.97;;;;;;;;;;5045543;28;20184;-68
2022/01/24 12:49:06;;;;;;;26.83;18.90;;;;;;;;;;5043527;28;20241;-69
2022/01/24 12:51:38;;;;;;;30.77;19.37;;;;;;;;;;5043054;28;20642;-68
2022/01/24 12:54:04;;;;;;;27.37;18.60;;;;;;;;;;5043476;28;20193;-69
2022/01/24 12:56:31;;;;;;;26.77;18.83;;;;;;;;;;5041776;28;20201;-68
2022/01/24 12:58:57;;;;;;;31.33;20.03;;;;;;;;;;5045590;28;20177;-68
2022/01/24 13:01:31;;;;;;;27.77;19.00;;;;;;;;;;5043967;28;20201;-68
2022/01/24 13:04:06;;;;;;;29.13;19.33;;;;;;;;;;5044660;28;20201;-68
2022/01/24 13:06:36;;;;;;;28.37;18.87;;;;;;;;;;5043799;28;20630;-68
2022/01/24 13:09:16;;;;;;;33.57;21.30;;;;;;;;;;5041341;28;20205;-68
2022/01/24 13:11:48;;;;;;;31.73;20.70;;;;;;;;;;5040650;28;20182;-68
2022/01/24 13:14:27;;;;;;;28.00;19.43;;;;;;;;;;5043469;28;20649;-68
2022/01/24 13:25:12;;;;;;;31.67;20.33;;;;;;;;;;5042565;28;20493;-68
2022/01/24 13:27:40;;;;;;;28.77;20.27;;;;;;;;;;5045938;28;20652;-67
2022/01/24 13:30:19;;;;;;;30.90;20.93;;;;;;;;;;5041859;28;20209;-67
2022/01/24 13:32:51;;;;;;;30.90;20.87;;;;;;;;;;5032199;28;20186;-67
2022/01/24 13:35:18;;;;;;;30.63;20.47;;;;;;;;;;5043644;28;20272;-67
2022/01/24 13:37:44;;;;;;;31.53;20.63;;;;;;;;;;5044882;28;20192;-67
2022/01/24 13:40:10;;;;;;;31.93;22.07;;;;;;;;;;5042185;28;20639;-68
2022/01/24 13:42:36;;;;;;;35.93;22.07;;;;;;;;;;5041927;28;20653;-67
2022/01/24 13:45:03;;;;;;;31.20;21.23;;;;;;;;;;5042886;28;20185;-67
2022/01/24 13:47:28;;;;;;;33.13;22.00;;;;;;;;;;5038112;28;20274;-67
2022/01/24 13:49:53;;;;;;;30.60;20.50;;;;;;;;;;5042705;28;20243;-68
2022/01/24 13:52:19;;;;;;;37.60;23.70;;;;;;;;;;5043635;28;20192;-68
2022/01/24 13:54:47;;;;;;;34.13;22.83;;;;;;;;;;5042974;28;20193;-68
2022/01/24 13:57:18;;;;;;;37.30;25.03;;;;;;;;;;5039088;28;20193;-68
2022/01/24 13:59:43;;;;;;;36.03;24.20;;;;;;;;;;5041021;28;20200;-69
2022/01/24 14:02:14;;;;;;;39.03;25.33;;;;;;;;;;5037051;28;20193;-68
2022/01/24 14:04:49;;;;;;;37.77;26.03;;;;;;;;;;5044043;28;20584;-68
2022/01/24 14:07:31;;;;;;;39.37;26.07;;;;;;;;;;5042000;28;21060;-68
2022/01/24 14:10:03;;;;;;;42.33;26.40;;;;;;;;;;5036710;28;20228;-68
2022/01/24 14:12:55;;;;;;;38.30;25.33;;;;;;;;;;5042490;28;20371;-67
2022/01/24 14:20:35;;;;;;;39.80;25.80;;;;;;;;;;5036990;28;20645;-67
2022/01/24 14:23:03;;;;;;;44.93;27.40;;;;;;;;;;5042067;28;20554;-67
2022/01/24 14:25:31;;;;;;;42.20;26.73;;;;;;;;;;5042872;28;20264;-68
2022/01/24 14:28:07;;;;;;;41.93;26.83;;;;;;;;;;5042313;28;20263;-68
2022/01/24 14:30:38;;;;;;;42.60;27.07;;;;;;;;;;5042970;28;20200;-67
2022/01/24 14:33:18;;;;;;;42.07;27.10;;;;;;;;;;5042029;28;20189;-68
2022/01/24 14:35:58;;;;;;;43.97;26.83;;;;;;;;;;5044442;28;20180;-68
2022/01/24 14:38:47;;;;;;;45.07;27.50;;;;;;;;;;5040981;28;20251;-68
2022/01/24 14:41:17;;;;;;;41.10;27.23;;;;;;;;;;5042660;28;20194;-68
2022/01/24 14:46:35;;;;;;;42.90;27.60;;;;;;;;;;5045367;28;20207;-68
2022/01/24 14:49:05;;;;;;;42.07;27.10;;;;;;;;;;5042980;28;20203;-68
2022/01/24 14:51:34;;;;;;;40.63;26.27;;;;;;;;;;5046559;28;20406;-68
2022/01/24 14:54:06;;;;;;;45.10;27.37;;;;;;;;;;5036121;28;20211;-68
2022/01/24 14:56:33;;;;;;;40.47;26.10;;;;;;;;;;5044131;28;20190;-66
2022/01/24 14:58:59;;;;;;;39.80;26.17;;;;;;;;;;5044178;28;20555;-68
2022/01/24 15:01:26;;;;;;;45.20;27.17;;;;;;;;;;5044873;28;20216;-67
2022/01/24 15:03:52;;;;;;;43.50;27.30;;;;;;;;;;5042444;28;20185;-68
2022/01/24 15:06:17;;;;;;;44.30;27.20;;;;;;;;;;5041642;28;20193;-68
2022/01/24 15:08:46;;;;;;;41.73;26.43;;;;;;;;;;5046779;28;20201;-68
2022/01/24 15:11:13;;;;;;;44.07;27.90;;;;;;;;;;5043863;28;20318;-68
2022/01/24 15:13:46;;;;;;;41.77;27.43;;;;;;;;;;5042063;28;20189;-68
2022/01/24 15:16:16;;;;;;;43.43;26.70;;;;;;;;;;5043832;28;20710;-68
2022/01/24 15:26:54;;;;;;;43.00;27.00;;;;;;;;;;5043513;28;20618;-67
2022/01/24 15:29:21;;;;;;;43.40;27.57;;;;;;;;;;5043449;28;20182;-68
2022/01/24 15:31:46;;;;;;;43.13;26.73;;;;;;;;;;5043316;28;20245;-68
2022/01/24 15:34:14;;;;;;;41.57;27.00;;;;;;;;;;5042550;28;20499;-68
2022/01/24 15:36:41;;;;;;;37.67;25.57;;;;;;;;;;5045742;28;20193;-68
2022/01/24 15:39:07;;;;;;;44.60;27.17;;;;;;;;;;5037130;28;20189;-68
2022/01/24 15:41:43;;;;;;;43.50;27.73;;;;;;;;;;5040672;28;20283;-68
2022/01/24 15:44:31;;;;;;;43.87;28.50;;;;;;;;;;5043053;28;20232;-68
2022/01/24 15:49:44;;;;;;;41.90;26.93;;;;;;;;;;5043650;28;20193;-66
2022/01/24 15:52:10;;;;;;;43.10;27.10;;;;;;;;;;5045157;28;20572;-68
2022/01/24 15:54:36;;;;;;;44.83;28.20;;;;;;;;;;5041894;28;20189;-68
2022/01/24 15:59:46;;;;;;;44.10;28.47;;;;;;;;;;5043654;28;20644;-68
2022/01/24 16:02:12;;;;;;;45.40;28.50;;;;;;;;;;5044261;28;20182;-68
2022/01/24 16:04:38;;;;;;;44.47;28.07;;;;;;;;;;5046067;28;20193;-68
2022/01/24 16:07:04;;;;;;;42.70;28.13;;;;;;;;;;5039774;28;20309;-68
2022/01/24 16:09:29;;;;;;;44.53;28.83;;;;;;;;;;5037723;28;20314;-67
2022/01/24 16:11:55;;;;;;;45.33;27.27;;;;;;;;;;5045077;28;20184;-68
2022/01/24 16:14:20;;;;;;;42.53;25.90;;;;;;;;;;5042850;28;20262;-68
2022/01/24 16:16:48;;;;;;;40.93;27.60;;;;;;;;;;5040731;28;20193;-67
2022/01/24 16:19:13;;;;;;;45.13;27.67;;;;;;;;;;5040066;28;21456;-67
2022/01/24 16:21:42;;;;;;;46.90;28.17;;;;;;;;;;5040782;28;20181;-68
2022/01/24 16:26:45;;;;;;;43.57;27.20;;;;;;;;;;5044232;28;20201;-68
2022/01/24 16:29:11;;;;;;;44.77;28.00;;;;;;;;;;4342679;28;10000735;-68
2022/01/24 16:31:37;;;;;;;47.77;29.40;;;;;;;;;;5036839;28;20225;-68
2022/01/24 16:34:07;;;;;;;44.83;28.20;;;;;;;;;;5038677;28;20185;-68
2022/01/24 16:36:33;;;;;;;47.97;29.97;;;;;;;;;;5041471;28;20604;-68
2022/01/24 16:39:00;;;;;;;49.30;28.93;;;;;;;;;;5037372;28;20201;-68
2022/01/24 16:41:36;;;;;;;49.03;29.73;;;;;;;;;;5043788;28;20592;-69
2022/01/24 16:49:16;;;;;;;45.13;29.43;;;;;;;;;;5047854;28;20261;-67